sensor_id;sensor_type;location;lat;lon;timestamp;P1;durP1;ratioP1;P2;durP2;ratioP2
30862;SDS011;17573;55.922;37.540;2023-08-24T00:02:14;11.90;;;9.82;;
30862;SDS011;17573;55.922;37.540;2023-08-24T00:04:39;22.70;;;9.60;;
30862;SDS011;17573;55.922;37.540;2023-08-24T00:07:05;15.23;;;10.18;;
30862;SDS011;17573;55.922;37.540;2023-08-24T00:09:31;10.82;;;8.80;;
30862;SDS011;17573;55.922;37.540;2023-08-24T00:11:57;10.27;;;8.52;;
30862;SDS011;17573;55.922;37.540;2023-08-24T00:14:23;13.98;;;8.40;;
30862;SDS011;17573;55.922;37.540;2023-08-24T00:16:49;10.50;;;8.35;;
30862;SDS011;17573;55.922;37.540;2023-08-24T00:19:15;11.25;;;8.13;;
30862;SDS011;17573;55.922;37.540;2023-08-24T00:21:41;10.70;;;7.15;;
30862;SDS011;17573;55.922;37.540;2023-08-24T00:24:07;10.38;;;7.65;;
30862;SDS011;17573;55.922;37.540;2023-08-24T00:26:34;7.82;;;7.10;;
30862;SDS011;17573;55.922;37.540;2023-08-24T00:29:00;8.25;;;6.72;;
30862;SDS011;17573;55.922;37.540;2023-08-24T00:31:26;9.52;;;7.40;;
30862;SDS011;17573;55.922;37.540;2023-08-24T00:33:52;9.82;;;7.38;;
30862;SDS011;17573;55.922;37.540;2023-08-24T00:36:18;9.65;;;7.30;;
30862;SDS011;17573;55.922;37.540;2023-08-24T00:38:44;12.07;;;6.95;;
30862;SDS011;17573;55.922;37.540;2023-08-24T00:41:13;9.45;;;7.45;;
30862;SDS011;17573;55.922;37.540;2023-08-24T00:43:39;8.73;;;6.95;;
30862;SDS011;17573;55.922;37.540;2023-08-24T00:46:06;9.25;;;7.18;;
30862;SDS011;17573;55.922;37.540;2023-08-24T00:48:32;11.65;;;6.13;;
30862;SDS011;17573;55.922;37.540;2023-08-24T00:50:59;9.30;;;6.70;;
30862;SDS011;17573;55.922;37.540;2023-08-24T00:53:26;11.48;;;7.15;;
30862;SDS011;17573;55.922;37.540;2023-08-24T00:55:54;9.35;;;7.30;;
30862;SDS011;17573;55.922;37.540;2023-08-24T00:58:20;7.68;;;6.38;;
30862;SDS011;17573;55.922;37.540;2023-08-24T01:00:48;7.88;;;5.93;;
30862;SDS011;17573;55.922;37.540;2023-08-24T01:03:18;8.18;;;6.55;;
30862;SDS011;17573;55.922;37.540;2023-08-24T01:05:44;9.15;;;6.97;;
30862;SDS011;17573;55.922;37.540;2023-08-24T01:08:11;7.10;;;6.40;;
30862;SDS011;17573;55.922;37.540;2023-08-24T01:10:42;9.93;;;7.13;;
30862;SDS011;17573;55.922;37.540;2023-08-24T01:13:16;9.10;;;6.28;;
30862;SDS011;17573;55.922;37.540;2023-08-24T01:16:15;8.48;;;5.68;;
30862;SDS011;17573;55.922;37.540;2023-08-24T01:18:44;7.43;;;6.57;;
30862;SDS011;17573;55.922;37.540;2023-08-24T01:21:10;9.43;;;6.13;;
30862;SDS011;17573;55.922;37.540;2023-08-24T01:26:30;7.57;;;5.57;;
30862;SDS011;17573;55.922;37.540;2023-08-24T01:28:56;9.50;;;5.90;;
30862;SDS011;17573;55.922;37.540;2023-08-24T01:31:24;6.75;;;6.05;;
30862;SDS011;17573;55.922;37.540;2023-08-24T01:33:50;12.93;;;6.15;;
30862;SDS011;17573;55.922;37.540;2023-08-24T01:36:17;8.73;;;5.47;;
30862;SDS011;17573;55.922;37.540;2023-08-24T01:38:43;12.20;;;6.47;;
30862;SDS011;17573;55.922;37.540;2023-08-24T01:41:20;6.82;;;5.65;;
30862;SDS011;17573;55.922;37.540;2023-08-24T01:43:49;8.32;;;5.80;;
30862;SDS011;17573;55.922;37.540;2023-08-24T01:46:19;10.30;;;6.32;;
30862;SDS011;17573;55.922;37.540;2023-08-24T01:48:46;9.30;;;6.18;;
30862;SDS011;17573;55.922;37.540;2023-08-24T01:51:13;6.80;;;6.13;;
30862;SDS011;17573;55.922;37.540;2023-08-24T01:53:41;8.48;;;7.15;;
30862;SDS011;17573;55.922;37.540;2023-08-24T01:56:11;7.70;;;6.13;;
30862;SDS011;17573;55.922;37.540;2023-08-24T01:58:38;7.47;;;6.47;;
30862;SDS011;17573;55.922;37.540;2023-08-24T02:01:05;12.68;;;7.65;;
30862;SDS011;17573;55.922;37.540;2023-08-24T02:03:31;9.35;;;6.72;;
30862;SDS011;17573;55.922;37.540;2023-08-24T02:05:57;9.02;;;6.65;;
30862;SDS011;17573;55.922;37.540;2023-08-24T02:08:23;12.57;;;6.68;;
30862;SDS011;17573;55.922;37.540;2023-08-24T02:10:49;11.20;;;7.10;;
30862;SDS011;17573;55.922;37.540;2023-08-24T02:13:15;11.57;;;7.22;;
30862;SDS011;17573;55.922;37.540;2023-08-24T02:15:41;7.63;;;6.72;;
30862;SDS011;17573;55.922;37.540;2023-08-24T02:18:07;9.93;;;7.45;;
30862;SDS011;17573;55.922;37.540;2023-08-24T02:20:37;6.93;;;5.65;;
30862;SDS011;17573;55.922;37.540;2023-08-24T02:23:03;6.18;;;5.57;;
30862;SDS011;17573;55.922;37.540;2023-08-24T02:25:29;8.25;;;6.00;;
30862;SDS011;17573;55.922;37.540;2023-08-24T02:27:56;7.93;;;5.93;;
30862;SDS011;17573;55.922;37.540;2023-08-24T02:30:22;10.07;;;6.53;;
30862;SDS011;17573;55.922;37.540;2023-08-24T02:32:49;7.85;;;5.88;;
30862;SDS011;17573;55.922;37.540;2023-08-24T02:35:15;9.35;;;6.78;;
30862;SDS011;17573;55.922;37.540;2023-08-24T02:37:42;15.35;;;5.78;;
30862;SDS011;17573;55.922;37.540;2023-08-24T02:40:08;7.60;;;5.57;;
30862;SDS011;17573;55.922;37.540;2023-08-24T02:42:35;11.48;;;6.53;;
30862;SDS011;17573;55.922;37.540;2023-08-24T02:45:01;8.27;;;6.53;;
30862;SDS011;17573;55.922;37.540;2023-08-24T02:47:32;7.28;;;6.50;;
30862;SDS011;17573;55.922;37.540;2023-08-24T02:49:58;10.73;;;6.60;;
30862;SDS011;17573;55.922;37.540;2023-08-24T02:52:24;7.28;;;6.10;;
30862;SDS011;17573;55.922;37.540;2023-08-24T02:54:50;6.50;;;5.80;;
30862;SDS011;17573;55.922;37.540;2023-08-24T02:57:16;8.38;;;6.60;;
30862;SDS011;17573;55.922;37.540;2023-08-24T02:59:42;7.93;;;6.57;;
30862;SDS011;17573;55.922;37.540;2023-08-24T03:02:10;9.13;;;7.18;;
30862;SDS011;17573;55.922;37.540;2023-08-24T03:04:36;8.00;;;7.20;;
30862;SDS011;17573;55.922;37.540;2023-08-24T03:07:02;11.20;;;6.88;;
30862;SDS011;17573;55.922;37.540;2023-08-24T03:09:29;8.35;;;6.57;;
30862;SDS011;17573;55.922;37.540;2023-08-24T03:11:55;9.18;;;6.95;;
30862;SDS011;17573;55.922;37.540;2023-08-24T03:14:21;11.48;;;7.25;;
30862;SDS011;17573;55.922;37.540;2023-08-24T03:16:48;9.52;;;7.57;;
30862;SDS011;17573;55.922;37.540;2023-08-24T03:19:16;11.95;;;7.07;;
30862;SDS011;17573;55.922;37.540;2023-08-24T03:21:44;11.52;;;7.45;;
30862;SDS011;17573;55.922;37.540;2023-08-24T03:24:10;10.70;;;8.27;;
30862;SDS011;17573;55.922;37.540;2023-08-24T03:26:39;10.52;;;7.80;;
30862;SDS011;17573;55.922;37.540;2023-08-24T03:29:05;12.70;;;7.95;;
30862;SDS011;17573;55.922;37.540;2023-08-24T03:31:31;10.88;;;7.10;;
30862;SDS011;17573;55.922;37.540;2023-08-24T03:33:58;9.82;;;7.90;;
30862;SDS011;17573;55.922;37.540;2023-08-24T03:36:23;22.80;;;7.95;;
30862;SDS011;17573;55.922;37.540;2023-08-24T03:38:49;17.20;;;8.68;;
30862;SDS011;17573;55.922;37.540;2023-08-24T03:41:15;11.23;;;9.32;;
30862;SDS011;17573;55.922;37.540;2023-08-24T03:43:41;12.05;;;9.45;;
30862;SDS011;17573;55.922;37.540;2023-08-24T03:46:07;14.73;;;8.45;;
30862;SDS011;17573;55.922;37.540;2023-08-24T03:48:33;12.93;;;9.55;;
30862;SDS011;17573;55.922;37.540;2023-08-24T03:50:59;14.60;;;9.80;;
30862;SDS011;17573;55.922;37.540;2023-08-24T03:53:25;14.15;;;10.23;;
30862;SDS011;17573;55.922;37.540;2023-08-24T03:55:52;14.05;;;9.73;;
30862;SDS011;17573;55.922;37.540;2023-08-24T03:58:20;16.60;;;9.52;;
30862;SDS011;17573;55.922;37.540;2023-08-24T04:00:46;16.58;;;9.43;;
30862;SDS011;17573;55.922;37.540;2023-08-24T04:03:13;13.10;;;9.07;;
30862;SDS011;17573;55.922;37.540;2023-08-24T04:05:39;12.13;;;9.50;;
30862;SDS011;17573;55.922;37.540;2023-08-24T04:08:05;14.82;;;8.60;;
30862;SDS011;17573;55.922;37.540;2023-08-24T04:10:32;14.13;;;8.82;;
30862;SDS011;17573;55.922;37.540;2023-08-24T04:12:58;12.90;;;9.45;;
30862;SDS011;17573;55.922;37.540;2023-08-24T04:15:24;17.58;;;9.55;;
30862;SDS011;17573;55.922;37.540;2023-08-24T04:17:51;15.52;;;9.10;;
30862;SDS011;17573;55.922;37.540;2023-08-24T04:20:17;13.57;;;9.15;;
30862;SDS011;17573;55.922;37.540;2023-08-24T04:22:43;12.73;;;8.35;;
30862;SDS011;17573;55.922;37.540;2023-08-24T04:25:08;21.38;;;8.40;;
30862;SDS011;17573;55.922;37.540;2023-08-24T04:27:35;12.93;;;8.60;;
30862;SDS011;17573;55.922;37.540;2023-08-24T04:30:02;11.90;;;9.35;;
30862;SDS011;17573;55.922;37.540;2023-08-24T04:32:33;14.25;;;9.50;;
30862;SDS011;17573;55.922;37.540;2023-08-24T04:34:59;13.98;;;7.57;;
30862;SDS011;17573;55.922;37.540;2023-08-24T04:37:25;15.27;;;9.20;;
30862;SDS011;17573;55.922;37.540;2023-08-24T04:39:51;14.18;;;9.27;;
30862;SDS011;17573;55.922;37.540;2023-08-24T04:42:17;18.95;;;10.07;;
30862;SDS011;17573;55.922;37.540;2023-08-24T04:44:43;20.92;;;11.57;;
30862;SDS011;17573;55.922;37.540;2023-08-24T04:47:08;24.30;;;12.50;;
30862;SDS011;17573;55.922;37.540;2023-08-24T04:49:35;25.60;;;12.85;;
30862;SDS011;17573;55.922;37.540;2023-08-24T04:52:01;19.02;;;13.40;;
30862;SDS011;17573;55.922;37.540;2023-08-24T04:54:28;28.10;;;13.25;;
30862;SDS011;17573;55.922;37.540;2023-08-24T04:56:54;21.27;;;11.95;;
30862;SDS011;17573;55.922;37.540;2023-08-24T04:59:20;16.10;;;11.75;;
30862;SDS011;17573;55.922;37.540;2023-08-24T05:01:46;17.85;;;12.25;;
30862;SDS011;17573;55.922;37.540;2023-08-24T05:04:12;23.70;;;11.38;;
30862;SDS011;17573;55.922;37.540;2023-08-24T05:06:39;22.85;;;10.55;;
30862;SDS011;17573;55.922;37.540;2023-08-24T05:09:05;15.68;;;10.38;;
30862;SDS011;17573;55.922;37.540;2023-08-24T05:11:31;21.25;;;10.85;;
30862;SDS011;17573;55.922;37.540;2023-08-24T05:13:57;24.08;;;11.02;;
30862;SDS011;17573;55.922;37.540;2023-08-24T05:16:23;16.05;;;9.63;;
30862;SDS011;17573;55.922;37.540;2023-08-24T05:18:49;25.83;;;10.35;;
30862;SDS011;17573;55.922;37.540;2023-08-24T05:21:15;15.05;;;10.23;;
30862;SDS011;17573;55.922;37.540;2023-08-24T05:23:40;20.17;;;9.35;;
30862;SDS011;17573;55.922;37.540;2023-08-24T05:26:06;16.92;;;9.27;;
30862;SDS011;17573;55.922;37.540;2023-08-24T05:28:32;17.95;;;9.27;;
30862;SDS011;17573;55.922;37.540;2023-08-24T05:30:58;13.07;;;8.77;;
30862;SDS011;17573;55.922;37.540;2023-08-24T05:33:24;12.30;;;8.32;;
30862;SDS011;17573;55.922;37.540;2023-08-24T05:35:50;10.85;;;8.02;;
30862;SDS011;17573;55.922;37.540;2023-08-24T05:38:17;24.17;;;9.70;;
30862;SDS011;17573;55.922;37.540;2023-08-24T05:40:43;20.52;;;9.15;;
30862;SDS011;17573;55.922;37.540;2023-08-24T05:43:11;17.98;;;8.65;;
30862;SDS011;17573;55.922;37.540;2023-08-24T05:45:37;17.90;;;9.05;;
30862;SDS011;17573;55.922;37.540;2023-08-24T05:48:05;12.57;;;8.98;;
30862;SDS011;17573;55.922;37.540;2023-08-24T05:50:31;16.20;;;9.70;;
30862;SDS011;17573;55.922;37.540;2023-08-24T05:52:57;16.40;;;9.25;;
30862;SDS011;17573;55.922;37.540;2023-08-24T05:55:23;20.67;;;8.30;;
30862;SDS011;17573;55.922;37.540;2023-08-24T05:57:49;18.48;;;8.57;;
30862;SDS011;17573;55.922;37.540;2023-08-24T06:00:15;22.05;;;8.98;;
30862;SDS011;17573;55.922;37.540;2023-08-24T06:02:42;11.70;;;7.55;;
30862;SDS011;17573;55.922;37.540;2023-08-24T06:05:08;13.85;;;8.50;;
30862;SDS011;17573;55.922;37.540;2023-08-24T06:07:34;19.38;;;8.60;;
30862;SDS011;17573;55.922;37.540;2023-08-24T06:10:01;13.13;;;8.15;;
30862;SDS011;17573;55.922;37.540;2023-08-24T06:12:32;14.10;;;6.95;;
30862;SDS011;17573;55.922;37.540;2023-08-24T06:14:57;16.70;;;7.18;;
30862;SDS011;17573;55.922;37.540;2023-08-24T06:17:23;7.03;;;6.32;;
30862;SDS011;17573;55.922;37.540;2023-08-24T06:19:49;18.67;;;7.25;;
30862;SDS011;17573;55.922;37.540;2023-08-24T06:22:15;11.90;;;7.05;;
30862;SDS011;17573;55.922;37.540;2023-08-24T06:24:41;10.65;;;7.20;;
30862;SDS011;17573;55.922;37.540;2023-08-24T06:27:07;11.38;;;6.07;;
30862;SDS011;17573;55.922;37.540;2023-08-24T06:29:34;10.77;;;6.05;;
30862;SDS011;17573;55.922;37.540;2023-08-24T06:32:00;12.00;;;6.15;;
30862;SDS011;17573;55.922;37.540;2023-08-24T06:34:26;9.27;;;5.78;;
30862;SDS011;17573;55.922;37.540;2023-08-24T06:36:52;14.13;;;5.78;;
30862;SDS011;17573;55.922;37.540;2023-08-24T06:39:18;10.90;;;5.32;;
30862;SDS011;17573;55.922;37.540;2023-08-24T06:41:44;8.80;;;5.55;;
30862;SDS011;17573;55.922;37.540;2023-08-24T06:44:10;19.50;;;6.93;;
30862;SDS011;17573;55.922;37.540;2023-08-24T06:46:36;10.55;;;5.72;;
30862;SDS011;17573;55.922;37.540;2023-08-24T06:49:02;13.57;;;6.78;;
30862;SDS011;17573;55.922;37.540;2023-08-24T06:51:28;10.20;;;5.47;;
30862;SDS011;17573;55.922;37.540;2023-08-24T06:53:54;17.65;;;5.75;;
30862;SDS011;17573;55.922;37.540;2023-08-24T06:56:20;13.05;;;6.50;;
30862;SDS011;17573;55.922;37.540;2023-08-24T06:58:47;12.25;;;5.95;;
30862;SDS011;17573;55.922;37.540;2023-08-24T07:01:13;6.55;;;5.03;;
30862;SDS011;17573;55.922;37.540;2023-08-24T07:03:39;14.18;;;5.50;;
30862;SDS011;17573;55.922;37.540;2023-08-24T07:06:06;12.95;;;6.97;;
30862;SDS011;17573;55.922;37.540;2023-08-24T07:08:33;15.80;;;6.05;;
30862;SDS011;17573;55.922;37.540;2023-08-24T07:11:01;7.97;;;5.68;;
30862;SDS011;17573;55.922;37.540;2023-08-24T07:13:28;13.35;;;6.07;;
30862;SDS011;17573;55.922;37.540;2023-08-24T07:15:54;13.45;;;6.43;;
30862;SDS011;17573;55.922;37.540;2023-08-24T07:18:21;11.30;;;6.00;;
30862;SDS011;17573;55.922;37.540;2023-08-24T07:20:47;12.35;;;7.00;;
30862;SDS011;17573;55.922;37.540;2023-08-24T07:23:13;21.00;;;6.82;;
30862;SDS011;17573;55.922;37.540;2023-08-24T07:25:40;12.00;;;6.93;;
30862;SDS011;17573;55.922;37.540;2023-08-24T07:28:07;7.93;;;6.20;;
30862;SDS011;17573;55.922;37.540;2023-08-24T07:30:35;19.45;;;7.63;;
30862;SDS011;17573;55.922;37.540;2023-08-24T07:33:02;15.60;;;6.68;;
30862;SDS011;17573;55.922;37.540;2023-08-24T07:35:31;12.32;;;5.75;;
30862;SDS011;17573;55.922;37.540;2023-08-24T07:37:58;11.82;;;6.60;;
30862;SDS011;17573;55.922;37.540;2023-08-24T07:40:24;19.60;;;6.40;;
30862;SDS011;17573;55.922;37.540;2023-08-24T07:42:52;7.78;;;6.03;;
30862;SDS011;17573;55.922;37.540;2023-08-24T07:45:21;15.88;;;5.75;;
30862;SDS011;17573;55.922;37.540;2023-08-24T07:47:49;7.47;;;5.57;;
30862;SDS011;17573;55.922;37.540;2023-08-24T07:50:15;8.80;;;5.97;;
30862;SDS011;17573;55.922;37.540;2023-08-24T07:52:41;13.30;;;7.05;;
30862;SDS011;17573;55.922;37.540;2023-08-24T07:55:07;8.57;;;5.07;;
30862;SDS011;17573;55.922;37.540;2023-08-24T07:57:34;11.48;;;6.05;;
30862;SDS011;17573;55.922;37.540;2023-08-24T08:00:00;8.10;;;5.00;;
30862;SDS011;17573;55.922;37.540;2023-08-24T08:02:26;12.25;;;6.10;;
30862;SDS011;17573;55.922;37.540;2023-08-24T08:04:56;14.70;;;4.97;;
30862;SDS011;17573;55.922;37.540;2023-08-24T08:07:23;14.45;;;5.93;;
30862;SDS011;17573;55.922;37.540;2023-08-24T08:09:50;7.35;;;5.15;;
30862;SDS011;17573;55.922;37.540;2023-08-24T08:12:15;6.97;;;4.72;;
30862;SDS011;17573;55.922;37.540;2023-08-24T08:14:41;6.35;;;4.88;;
30862;SDS011;17573;55.922;37.540;2023-08-24T08:17:07;13.40;;;5.53;;
30862;SDS011;17573;55.922;37.540;2023-08-24T08:19:33;11.40;;;5.43;;
30862;SDS011;17573;55.922;37.540;2023-08-24T08:22:01;6.72;;;4.93;;
30862;SDS011;17573;55.922;37.540;2023-08-24T08:24:27;9.57;;;5.43;;
30862;SDS011;17573;55.922;37.540;2023-08-24T08:26:53;8.18;;;5.20;;
30862;SDS011;17573;55.922;37.540;2023-08-24T08:29:19;10.23;;;5.65;;
30862;SDS011;17573;55.922;37.540;2023-08-24T08:31:45;14.80;;;5.70;;
30862;SDS011;17573;55.922;37.540;2023-08-24T08:34:11;13.43;;;5.28;;
30862;SDS011;17573;55.922;37.540;2023-08-24T08:36:37;7.53;;;5.03;;
30862;SDS011;17573;55.922;37.540;2023-08-24T08:39:03;8.18;;;4.72;;
30862;SDS011;17573;55.922;37.540;2023-08-24T08:41:34;7.45;;;5.35;;
30862;SDS011;17573;55.922;37.540;2023-08-24T08:44:04;5.13;;;4.55;;
30862;SDS011;17573;55.922;37.540;2023-08-24T08:46:31;9.27;;;5.93;;
30862;SDS011;17573;55.922;37.540;2023-08-24T08:48:59;8.88;;;5.40;;
30862;SDS011;17573;55.922;37.540;2023-08-24T08:51:29;7.30;;;4.70;;
30862;SDS011;17573;55.922;37.540;2023-08-24T08:53:55;18.60;;;5.30;;
30862;SDS011;17573;55.922;37.540;2023-08-24T08:56:22;13.32;;;4.32;;
30862;SDS011;17573;55.922;37.540;2023-08-24T08:58:48;12.38;;;4.55;;
30862;SDS011;17573;55.922;37.540;2023-08-24T09:01:14;5.43;;;4.28;;
30862;SDS011;17573;55.922;37.540;2023-08-24T09:03:40;6.88;;;4.00;;
30862;SDS011;17573;55.922;37.540;2023-08-24T09:06:08;8.65;;;4.80;;
30862;SDS011;17573;55.922;37.540;2023-08-24T09:08:34;13.57;;;4.10;;
30862;SDS011;17573;55.922;37.540;2023-08-24T09:11:00;10.23;;;5.03;;
30862;SDS011;17573;55.922;37.540;2023-08-24T09:13:26;5.93;;;4.38;;
30862;SDS011;17573;55.922;37.540;2023-08-24T09:15:52;10.75;;;4.13;;
30862;SDS011;17573;55.922;37.540;2023-08-24T09:18:19;15.55;;;4.80;;
30862;SDS011;17573;55.922;37.540;2023-08-24T09:20:46;10.48;;;4.82;;
30862;SDS011;17573;55.922;37.540;2023-08-24T09:23:18;7.28;;;4.50;;
30862;SDS011;17573;55.922;37.540;2023-08-24T09:25:47;4.60;;;3.83;;
30862;SDS011;17573;55.922;37.540;2023-08-24T09:28:14;5.75;;;3.92;;
30862;SDS011;17573;55.922;37.540;2023-08-24T09:30:49;8.10;;;3.92;;
30862;SDS011;17573;55.922;37.540;2023-08-24T09:33:18;4.18;;;3.78;;
30862;SDS011;17573;55.922;37.540;2023-08-24T09:35:44;6.55;;;4.28;;
30862;SDS011;17573;55.922;37.540;2023-08-24T09:40:47;11.93;;;4.25;;
30862;SDS011;17573;55.922;37.540;2023-08-24T09:43:16;8.23;;;4.82;;
30862;SDS011;17573;55.922;37.540;2023-08-24T09:48:18;6.32;;;4.18;;
30862;SDS011;17573;55.922;37.540;2023-08-24T09:50:45;11.98;;;4.60;;
30862;SDS011;17573;55.922;37.540;2023-08-24T09:53:16;14.95;;;4.80;;
30862;SDS011;17573;55.922;37.540;2023-08-24T09:55:53;6.25;;;4.32;;
30862;SDS011;17573;55.922;37.540;2023-08-24T09:58:24;5.80;;;3.75;;
30862;SDS011;17573;55.922;37.540;2023-08-24T10:00:50;4.38;;;3.70;;
30862;SDS011;17573;55.922;37.540;2023-08-24T10:03:17;9.15;;;4.32;;
30862;SDS011;17573;55.922;37.540;2023-08-24T10:05:51;10.52;;;4.90;;
30862;SDS011;17573;55.922;37.540;2023-08-24T10:08:27;7.28;;;4.15;;
30862;SDS011;17573;55.922;37.540;2023-08-24T10:10:58;5.20;;;4.07;;
30862;SDS011;17573;55.922;37.540;2023-08-24T10:13:39;7.00;;;4.43;;
30862;SDS011;17573;55.922;37.540;2023-08-24T10:16:07;5.37;;;4.37;;
30862;SDS011;17573;55.922;37.540;2023-08-24T10:18:33;5.22;;;3.70;;
30862;SDS011;17573;55.922;37.540;2023-08-24T10:21:00;8.57;;;3.92;;
30862;SDS011;17573;55.922;37.540;2023-08-24T10:23:27;6.55;;;4.53;;
30862;SDS011;17573;55.922;37.540;2023-08-24T10:25:57;4.35;;;3.72;;
30862;SDS011;17573;55.922;37.540;2023-08-24T10:28:23;5.22;;;4.10;;
30862;SDS011;17573;55.922;37.540;2023-08-24T10:30:52;8.73;;;5.22;;
30862;SDS011;17573;55.922;37.540;2023-08-24T10:33:20;5.60;;;3.92;;
30862;SDS011;17573;55.922;37.540;2023-08-24T10:35:48;4.47;;;3.53;;
30862;SDS011;17573;55.922;37.540;2023-08-24T10:38:27;4.60;;;3.80;;
30862;SDS011;17573;55.922;37.540;2023-08-24T10:40:54;7.00;;;4.00;;
30862;SDS011;17573;55.922;37.540;2023-08-24T10:43:22;7.53;;;3.80;;
30862;SDS011;17573;55.922;37.540;2023-08-24T10:45:57;4.35;;;3.67;;
30862;SDS011;17573;55.922;37.540;2023-08-24T10:48:28;4.68;;;3.33;;
30862;SDS011;17573;55.922;37.540;2023-08-24T10:53:51;7.47;;;3.40;;
30862;SDS011;17573;55.922;37.540;2023-08-24T10:56:51;3.20;;;2.90;;
30862;SDS011;17573;55.922;37.540;2023-08-24T10:59:17;7.43;;;3.13;;
30862;SDS011;17573;55.922;37.540;2023-08-24T11:04:17;3.83;;;3.03;;
30862;SDS011;17573;55.922;37.540;2023-08-24T11:09:20;6.78;;;3.15;;
30862;SDS011;17573;55.922;37.540;2023-08-24T11:11:55;3.70;;;3.40;;
30862;SDS011;17573;55.922;37.540;2023-08-24T11:14:23;5.38;;;3.42;;
30862;SDS011;17573;55.922;37.540;2023-08-24T11:16:51;4.05;;;3.25;;
30862;SDS011;17573;55.922;37.540;2023-08-24T11:19:17;6.53;;;3.15;;
30862;SDS011;17573;55.922;37.540;2023-08-24T11:21:44;14.02;;;3.10;;
30862;SDS011;17573;55.922;37.540;2023-08-24T11:24:14;4.18;;;3.42;;
30862;SDS011;17573;55.922;37.540;2023-08-24T11:26:41;5.45;;;3.28;;
30862;SDS011;17573;55.922;37.540;2023-08-24T11:29:08;4.82;;;3.60;;
30862;SDS011;17573;55.922;37.540;2023-08-24T11:31:34;9.30;;;3.22;;
30862;SDS011;17573;55.922;37.540;2023-08-24T11:34:01;4.10;;;2.95;;
30862;SDS011;17573;55.922;37.540;2023-08-24T11:36:28;6.80;;;2.63;;
30862;SDS011;17573;55.922;37.540;2023-08-24T11:38:56;10.52;;;3.30;;
30862;SDS011;17573;55.922;37.540;2023-08-24T11:41:23;5.30;;;3.30;;
30862;SDS011;17573;55.922;37.540;2023-08-24T11:43:49;4.40;;;2.97;;
30862;SDS011;17573;55.922;37.540;2023-08-24T11:46:18;7.20;;;3.03;;
30862;SDS011;17573;55.922;37.540;2023-08-24T11:48:44;12.00;;;3.28;;
30862;SDS011;17573;55.922;37.540;2023-08-24T11:51:11;8.77;;;2.83;;
30862;SDS011;17573;55.922;37.540;2023-08-24T11:53:41;10.07;;;2.85;;
30862;SDS011;17573;55.922;37.540;2023-08-24T11:56:08;4.88;;;2.67;;
30862;SDS011;17573;55.922;37.540;2023-08-24T12:01:08;10.70;;;3.08;;
30862;SDS011;17573;55.922;37.540;2023-08-24T12:03:36;8.80;;;2.72;;
30862;SDS011;17573;55.922;37.540;2023-08-24T12:06:02;3.88;;;2.80;;
30862;SDS011;17573;55.922;37.540;2023-08-24T12:08:39;3.22;;;2.60;;
30862;SDS011;17573;55.922;37.540;2023-08-24T12:11:10;3.60;;;2.72;;
30862;SDS011;17573;55.922;37.540;2023-08-24T12:13:49;4.13;;;2.63;;
30862;SDS011;17573;55.922;37.540;2023-08-24T12:16:16;8.93;;;2.65;;
30862;SDS011;17573;55.922;37.540;2023-08-24T12:18:46;9.95;;;3.03;;
30862;SDS011;17573;55.922;37.540;2023-08-24T12:21:12;5.18;;;2.75;;
30862;SDS011;17573;55.922;37.540;2023-08-24T12:23:39;5.82;;;2.35;;
30862;SDS011;17573;55.922;37.540;2023-08-24T12:26:04;4.03;;;2.60;;
30862;SDS011;17573;55.922;37.540;2023-08-24T12:28:33;4.43;;;2.97;;
30862;SDS011;17573;55.922;37.540;2023-08-24T12:31:00;7.18;;;3.00;;
30862;SDS011;17573;55.922;37.540;2023-08-24T12:33:29;5.88;;;2.60;;
30862;SDS011;17573;55.922;37.540;2023-08-24T12:35:56;3.28;;;2.80;;
30862;SDS011;17573;55.922;37.540;2023-08-24T12:38:24;5.95;;;3.40;;
30862;SDS011;17573;55.922;37.540;2023-08-24T12:40:51;3.20;;;2.78;;
30862;SDS011;17573;55.922;37.540;2023-08-24T12:43:18;5.95;;;3.45;;
30862;SDS011;17573;55.922;37.540;2023-08-24T12:45:44;9.73;;;3.50;;
30862;SDS011;17573;55.922;37.540;2023-08-24T12:48:10;4.00;;;3.60;;
30862;SDS011;17573;55.922;37.540;2023-08-24T12:50:37;5.63;;;3.13;;
30862;SDS011;17573;55.922;37.540;2023-08-24T12:53:04;12.02;;;2.85;;
30862;SDS011;17573;55.922;37.540;2023-08-24T12:55:34;6.35;;;2.85;;
30862;SDS011;17573;55.922;37.540;2023-08-24T12:58:01;5.50;;;3.60;;
30862;SDS011;17573;55.922;37.540;2023-08-24T13:00:28;7.30;;;3.40;;
30862;SDS011;17573;55.922;37.540;2023-08-24T13:02:55;4.75;;;3.08;;
30862;SDS011;17573;55.922;37.540;2023-08-24T13:05:21;5.97;;;2.90;;
30862;SDS011;17573;55.922;37.540;2023-08-24T13:07:47;7.70;;;3.25;;
30862;SDS011;17573;55.922;37.540;2023-08-24T13:10:12;5.00;;;3.10;;
30862;SDS011;17573;55.922;37.540;2023-08-24T13:12:39;4.32;;;2.80;;
30862;SDS011;17573;55.922;37.540;2023-08-24T13:15:05;11.75;;;3.72;;
30862;SDS011;17573;55.922;37.540;2023-08-24T13:17:32;11.80;;;3.63;;
30862;SDS011;17573;55.922;37.540;2023-08-24T13:19:59;12.27;;;3.80;;
30862;SDS011;17573;55.922;37.540;2023-08-24T13:22:25;6.40;;;3.08;;
30862;SDS011;17573;55.922;37.540;2023-08-24T13:24:51;15.98;;;8.75;;
30862;SDS011;17573;55.922;37.540;2023-08-24T13:27:17;6.55;;;3.25;;
30862;SDS011;17573;55.922;37.540;2023-08-24T13:29:43;16.95;;;3.65;;
30862;SDS011;17573;55.922;37.540;2023-08-24T13:32:09;5.97;;;3.03;;
30862;SDS011;17573;55.922;37.540;2023-08-24T13:34:35;5.60;;;3.30;;
30862;SDS011;17573;55.922;37.540;2023-08-24T13:37:02;9.77;;;3.30;;
30862;SDS011;17573;55.922;37.540;2023-08-24T13:39:29;4.63;;;3.08;;
30862;SDS011;17573;55.922;37.540;2023-08-24T13:41:56;4.55;;;3.20;;
30862;SDS011;17573;55.922;37.540;2023-08-24T13:44:22;15.38;;;3.45;;
30862;SDS011;17573;55.922;37.540;2023-08-24T13:46:49;15.50;;;3.83;;
30862;SDS011;17573;55.922;37.540;2023-08-24T13:49:17;14.13;;;3.22;;
30862;SDS011;17573;55.922;37.540;2023-08-24T13:51:44;4.45;;;2.88;;
30862;SDS011;17573;55.922;37.540;2023-08-24T13:54:13;9.40;;;3.72;;
30862;SDS011;17573;55.922;37.540;2023-08-24T13:56:44;7.75;;;3.40;;
30862;SDS011;17573;55.922;37.540;2023-08-24T13:59:11;4.68;;;2.97;;
30862;SDS011;17573;55.922;37.540;2023-08-24T14:01:37;4.72;;;3.10;;
30862;SDS011;17573;55.922;37.540;2023-08-24T14:04:03;4.75;;;2.85;;
30862;SDS011;17573;55.922;37.540;2023-08-24T14:06:29;13.45;;;3.20;;
30862;SDS011;17573;55.922;37.540;2023-08-24T14:08:56;6.68;;;3.38;;
30862;SDS011;17573;55.922;37.540;2023-08-24T14:11:23;5.18;;;2.83;;
30862;SDS011;17573;55.922;37.540;2023-08-24T14:13:49;8.80;;;3.35;;
30862;SDS011;17573;55.922;37.540;2023-08-24T14:16:16;8.90;;;2.85;;
30862;SDS011;17573;55.922;37.540;2023-08-24T14:18:43;4.80;;;2.90;;
30862;SDS011;17573;55.922;37.540;2023-08-24T14:21:10;5.32;;;3.00;;
30862;SDS011;17573;55.922;37.540;2023-08-24T14:23:36;3.95;;;3.10;;
30862;SDS011;17573;55.922;37.540;2023-08-24T14:26:02;8.07;;;2.85;;
30862;SDS011;17573;55.922;37.540;2023-08-24T14:28:46;14.10;;;4.22;;
30862;SDS011;17573;55.922;37.540;2023-08-24T14:31:29;8.38;;;3.30;;
30862;SDS011;17573;55.922;37.540;2023-08-24T14:33:55;10.43;;;3.05;;
30862;SDS011;17573;55.922;37.540;2023-08-24T14:36:21;5.70;;;3.80;;
30862;SDS011;17573;55.922;37.540;2023-08-24T14:38:48;5.15;;;2.83;;
30862;SDS011;17573;55.922;37.540;2023-08-24T14:41:14;4.68;;;3.25;;
30862;SDS011;17573;55.922;37.540;2023-08-24T14:43:41;4.15;;;2.78;;
30862;SDS011;17573;55.922;37.540;2023-08-24T14:46:08;9.93;;;3.78;;
30862;SDS011;17573;55.922;37.540;2023-08-24T14:48:34;13.85;;;4.00;;